sensor_id;sensor_type;location;lat;lon;timestamp;P1;durP1;ratioP1;P2;durP2;ratioP2
76336;SDS011;65157;50.082;18.178;2023-04-03T00:00:53;3.60;;;2.60;;
76336;SDS011;65157;50.082;18.178;2023-04-03T00:03:20;4.30;;;2.60;;
76336;SDS011;65157;50.082;18.178;2023-04-03T00:05:47;6.60;;;3.10;;
76336;SDS011;65157;50.082;18.178;2023-04-03T00:08:14;4.50;;;2.50;;
76336;SDS011;65157;50.082;18.178;2023-04-03T00:10:42;3.90;;;2.90;;
76336;SDS011;65157;50.082;18.178;2023-04-03T00:13:09;6.20;;;2.60;;
76336;SDS011;65157;50.082;18.178;2023-04-03T00:15:36;6.10;;;2.90;;
76336;SDS011;65157;50.082;18.178;2023-04-03T00:18:04;3.90;;;2.60;;
76336;SDS011;65157;50.082;18.178;2023-04-03T00:20:34;4.20;;;2.50;;
76336;SDS011;65157;50.082;18.178;2023-04-03T00:23:01;3.60;;;2.20;;
76336;SDS011;65157;50.082;18.178;2023-04-03T00:25:34;5.60;;;2.70;;
76336;SDS011;65157;50.082;18.178;2023-04-03T00:28:01;3.10;;;2.00;;
76336;SDS011;65157;50.082;18.178;2023-04-03T00:30:27;4.90;;;2.00;;
76336;SDS011;65157;50.082;18.178;2023-04-03T00:32:54;4.50;;;1.90;;
76336;SDS011;65157;50.082;18.178;2023-04-03T00:35:21;4.30;;;2.20;;
76336;SDS011;65157;50.082;18.178;2023-04-03T00:37:53;5.00;;;2.10;;
76336;SDS011;65157;50.082;18.178;2023-04-03T00:40:21;3.40;;;2.00;;
76336;SDS011;65157;50.082;18.178;2023-04-03T00:42:52;3.50;;;1.70;;
76336;SDS011;65157;50.082;18.178;2023-04-03T00:45:39;5.80;;;2.40;;
76336;SDS011;65157;50.082;18.178;2023-04-03T00:48:11;7.20;;;2.20;;
76336;SDS011;65157;50.082;18.178;2023-04-03T00:50:42;6.30;;;2.40;;
76336;SDS011;65157;50.082;18.178;2023-04-03T00:53:13;4.80;;;1.90;;
76336;SDS011;65157;50.082;18.178;2023-04-03T00:55:44;5.40;;;2.20;;
76336;SDS011;65157;50.082;18.178;2023-04-03T00:58:13;3.90;;;2.20;;
76336;SDS011;65157;50.082;18.178;2023-04-03T01:00:44;6.70;;;2.20;;
76336;SDS011;65157;50.082;18.178;2023-04-03T01:03:16;3.40;;;2.10;;
76336;SDS011;65157;50.082;18.178;2023-04-03T01:05:43;5.00;;;2.30;;
76336;SDS011;65157;50.082;18.178;2023-04-03T01:08:10;6.80;;;2.20;;
76336;SDS011;65157;50.082;18.178;2023-04-03T01:10:37;5.10;;;2.10;;
76336;SDS011;65157;50.082;18.178;2023-04-03T01:13:17;4.40;;;2.00;;
76336;SDS011;65157;50.082;18.178;2023-04-03T01:15:49;5.20;;;2.00;;
76336;SDS011;65157;50.082;18.178;2023-04-03T01:18:16;5.10;;;2.00;;
76336;SDS011;65157;50.082;18.178;2023-04-03T01:26:12;4.10;;;2.00;;
76336;SDS011;65157;50.082;18.178;2023-04-03T01:28:41;6.70;;;2.20;;
76336;SDS011;65157;50.082;18.178;2023-04-03T01:31:10;2.70;;;1.80;;
76336;SDS011;65157;50.082;18.178;2023-04-03T01:33:48;3.40;;;1.90;;
76336;SDS011;65157;50.082;18.178;2023-04-03T01:36:26;3.30;;;1.70;;
76336;SDS011;65157;50.082;18.178;2023-04-03T01:38:55;3.50;;;1.90;;
76336;SDS011;65157;50.082;18.178;2023-04-03T01:41:22;4.50;;;2.20;;
76336;SDS011;65157;50.082;18.178;2023-04-03T01:43:51;4.80;;;1.90;;
76336;SDS011;65157;50.082;18.178;2023-04-03T01:46:18;4.50;;;2.00;;
76336;SDS011;65157;50.082;18.178;2023-04-03T01:48:45;5.50;;;2.00;;
76336;SDS011;65157;50.082;18.178;2023-04-03T01:51:12;10.00;;;2.20;;
76336;SDS011;65157;50.082;18.178;2023-04-03T01:53:39;4.10;;;1.80;;
76336;SDS011;65157;50.082;18.178;2023-04-03T01:56:05;4.20;;;1.60;;
76336;SDS011;65157;50.082;18.178;2023-04-03T01:58:32;4.70;;;1.70;;
76336;SDS011;65157;50.082;18.178;2023-04-03T02:00:59;2.90;;;2.00;;
76336;SDS011;65157;50.082;18.178;2023-04-03T02:03:28;3.80;;;1.50;;
76336;SDS011;65157;50.082;18.178;2023-04-03T02:05:55;6.20;;;1.80;;
76336;SDS011;65157;50.082;18.178;2023-04-03T02:08:22;4.30;;;1.50;;
76336;SDS011;65157;50.082;18.178;2023-04-03T02:13:17;3.50;;;1.70;;
76336;SDS011;65157;50.082;18.178;2023-04-03T02:15:44;3.70;;;1.50;;
76336;SDS011;65157;50.082;18.178;2023-04-03T02:18:11;2.90;;;1.70;;
76336;SDS011;65157;50.082;18.178;2023-04-03T02:20:39;2.30;;;1.30;;
76336;SDS011;65157;50.082;18.178;2023-04-03T02:23:06;4.00;;;1.70;;
76336;SDS011;65157;50.082;18.178;2023-04-03T02:25:33;4.80;;;1.50;;
76336;SDS011;65157;50.082;18.178;2023-04-03T02:28:00;3.30;;;1.50;;
76336;SDS011;65157;50.082;18.178;2023-04-03T02:30:27;5.20;;;1.70;;
76336;SDS011;65157;50.082;18.178;2023-04-03T02:32:54;3.10;;;1.80;;
76336;SDS011;65157;50.082;18.178;2023-04-03T02:35:20;3.40;;;1.50;;
76336;SDS011;65157;50.082;18.178;2023-04-03T02:37:47;2.80;;;1.20;;
76336;SDS011;65157;50.082;18.178;2023-04-03T02:40:14;4.20;;;1.50;;
76336;SDS011;65157;50.082;18.178;2023-04-03T02:42:40;3.20;;;1.70;;
76336;SDS011;65157;50.082;18.178;2023-04-03T02:45:07;3.60;;;1.70;;
76336;SDS011;65157;50.082;18.178;2023-04-03T02:47:34;3.60;;;1.80;;
76336;SDS011;65157;50.082;18.178;2023-04-03T02:50:01;3.90;;;1.50;;
76336;SDS011;65157;50.082;18.178;2023-04-03T02:52:27;3.40;;;1.10;;
76336;SDS011;65157;50.082;18.178;2023-04-03T02:54:54;1.90;;;1.30;;
76336;SDS011;65157;50.082;18.178;2023-04-03T02:57:21;3.00;;;1.40;;
76336;SDS011;65157;50.082;18.178;2023-04-03T02:59:47;3.20;;;1.40;;
76336;SDS011;65157;50.082;18.178;2023-04-03T03:02:14;2.50;;;1.30;;
76336;SDS011;65157;50.082;18.178;2023-04-03T03:04:41;3.00;;;1.50;;
76336;SDS011;65157;50.082;18.178;2023-04-03T03:07:14;2.50;;;1.50;;
76336;SDS011;65157;50.082;18.178;2023-04-03T03:09:40;3.20;;;1.50;;
76336;SDS011;65157;50.082;18.178;2023-04-03T03:12:07;4.60;;;1.70;;
76336;SDS011;65157;50.082;18.178;2023-04-03T03:14:34;3.30;;;1.40;;
76336;SDS011;65157;50.082;18.178;2023-04-03T03:17:04;3.90;;;1.50;;
76336;SDS011;65157;50.082;18.178;2023-04-03T03:19:30;4.20;;;1.30;;
76336;SDS011;65157;50.082;18.178;2023-04-03T03:21:57;3.60;;;1.40;;
76336;SDS011;65157;50.082;18.178;2023-04-03T03:24:24;2.50;;;1.20;;
76336;SDS011;65157;50.082;18.178;2023-04-03T03:26:50;4.60;;;1.70;;
76336;SDS011;65157;50.082;18.178;2023-04-03T03:29:17;4.10;;;1.40;;
76336;SDS011;65157;50.082;18.178;2023-04-03T03:31:44;1.60;;;1.10;;
76336;SDS011;65157;50.082;18.178;2023-04-03T03:34:11;3.50;;;1.10;;
76336;SDS011;65157;50.082;18.178;2023-04-03T03:36:38;4.00;;;1.20;;
76336;SDS011;65157;50.082;18.178;2023-04-03T03:39:05;1.90;;;1.50;;
76336;SDS011;65157;50.082;18.178;2023-04-03T03:41:33;2.20;;;1.30;;
76336;SDS011;65157;50.082;18.178;2023-04-03T03:44:00;3.70;;;1.20;;
76336;SDS011;65157;50.082;18.178;2023-04-03T03:46:27;3.00;;;1.10;;
76336;SDS011;65157;50.082;18.178;2023-04-03T03:48:54;3.50;;;1.30;;
76336;SDS011;65157;50.082;18.178;2023-04-03T03:51:21;3.70;;;1.60;;
76336;SDS011;65157;50.082;18.178;2023-04-03T03:53:47;2.00;;;1.20;;
76336;SDS011;65157;50.082;18.178;2023-04-03T03:56:14;3.80;;;1.70;;
76336;SDS011;65157;50.082;18.178;2023-04-03T03:58:41;5.30;;;2.20;;
76336;SDS011;65157;50.082;18.178;2023-04-03T04:01:07;4.30;;;2.00;;
76336;SDS011;65157;50.082;18.178;2023-04-03T04:03:37;4.60;;;2.20;;
76336;SDS011;65157;50.082;18.178;2023-04-03T04:06:04;4.00;;;1.40;;
76336;SDS011;65157;50.082;18.178;2023-04-03T04:08:31;5.90;;;2.10;;
76336;SDS011;65157;50.082;18.178;2023-04-03T04:10:57;5.20;;;1.80;;
76336;SDS011;65157;50.082;18.178;2023-04-03T04:13:31;2.20;;;1.10;;
76336;SDS011;65157;50.082;18.178;2023-04-03T04:15:57;4.50;;;1.30;;
76336;SDS011;65157;50.082;18.178;2023-04-03T04:18:24;4.30;;;1.40;;
76336;SDS011;65157;50.082;18.178;2023-04-03T04:20:51;2.00;;;1.20;;
76336;SDS011;65157;50.082;18.178;2023-04-03T04:23:18;2.30;;;1.40;;
76336;SDS011;65157;50.082;18.178;2023-04-03T04:25:45;2.50;;;1.10;;
76336;SDS011;65157;50.082;18.178;2023-04-03T04:28:13;4.30;;;2.10;;
76336;SDS011;65157;50.082;18.178;2023-04-03T04:30:41;3.70;;;2.50;;
76336;SDS011;65157;50.082;18.178;2023-04-03T04:33:08;3.50;;;2.10;;
76336;SDS011;65157;50.082;18.178;2023-04-03T04:35:34;3.00;;;1.60;;
76336;SDS011;65157;50.082;18.178;2023-04-03T04:38:01;3.90;;;2.20;;
76336;SDS011;65157;50.082;18.178;2023-04-03T04:40:28;5.50;;;2.40;;
76336;SDS011;65157;50.082;18.178;2023-04-03T04:42:56;2.80;;;1.40;;
76336;SDS011;65157;50.082;18.178;2023-04-03T04:45:25;7.50;;;2.00;;
76336;SDS011;65157;50.082;18.178;2023-04-03T04:47:54;3.90;;;2.10;;
76336;SDS011;65157;50.082;18.178;2023-04-03T04:50:22;6.90;;;2.20;;
76336;SDS011;65157;50.082;18.178;2023-04-03T04:52:49;4.50;;;2.00;;
76336;SDS011;65157;50.082;18.178;2023-04-03T04:55:15;6.70;;;1.70;;
76336;SDS011;65157;50.082;18.178;2023-04-03T04:57:42;4.80;;;1.70;;
76336;SDS011;65157;50.082;18.178;2023-04-03T05:00:09;3.10;;;1.40;;
76336;SDS011;65157;50.082;18.178;2023-04-03T05:02:37;3.80;;;1.60;;
76336;SDS011;65157;50.082;18.178;2023-04-03T05:05:03;5.30;;;1.70;;
76336;SDS011;65157;50.082;18.178;2023-04-03T05:07:30;4.40;;;1.90;;
76336;SDS011;65157;50.082;18.178;2023-04-03T05:09:57;6.60;;;1.80;;
76336;SDS011;65157;50.082;18.178;2023-04-03T05:12:24;4.80;;;1.80;;
76336;SDS011;65157;50.082;18.178;2023-04-03T05:14:50;4.20;;;1.90;;
76336;SDS011;65157;50.082;18.178;2023-04-03T05:17:17;2.80;;;1.40;;
76336;SDS011;65157;50.082;18.178;2023-04-03T05:19:44;4.00;;;1.70;;
76336;SDS011;65157;50.082;18.178;2023-04-03T05:22:11;4.40;;;1.80;;
76336;SDS011;65157;50.082;18.178;2023-04-03T05:24:37;3.00;;;2.20;;
76336;SDS011;65157;50.082;18.178;2023-04-03T05:27:07;4.50;;;1.90;;
76336;SDS011;65157;50.082;18.178;2023-04-03T05:29:36;5.50;;;1.50;;
76336;SDS011;65157;50.082;18.178;2023-04-03T05:32:05;2.80;;;1.50;;
76336;SDS011;65157;50.082;18.178;2023-04-03T05:34:32;5.20;;;1.50;;
76336;SDS011;65157;50.082;18.178;2023-04-03T05:36:58;6.70;;;1.80;;
76336;SDS011;65157;50.082;18.178;2023-04-03T05:39:25;3.40;;;1.60;;
76336;SDS011;65157;50.082;18.178;2023-04-03T05:41:54;6.60;;;1.80;;
76336;SDS011;65157;50.082;18.178;2023-04-03T05:44:21;6.50;;;2.10;;
76336;SDS011;65157;50.082;18.178;2023-04-03T05:46:53;3.70;;;1.80;;
76336;SDS011;65157;50.082;18.178;2023-04-03T05:49:20;3.00;;;1.50;;
76336;SDS011;65157;50.082;18.178;2023-04-03T05:51:53;5.70;;;2.10;;
76336;SDS011;65157;50.082;18.178;2023-04-03T05:54:26;5.00;;;1.90;;
76336;SDS011;65157;50.082;18.178;2023-04-03T05:56:54;4.60;;;1.60;;
76336;SDS011;65157;50.082;18.178;2023-04-03T05:59:21;3.30;;;1.50;;
76336;SDS011;65157;50.082;18.178;2023-04-03T06:01:48;4.90;;;2.00;;
76336;SDS011;65157;50.082;18.178;2023-04-03T06:04:15;4.00;;;1.60;;
76336;SDS011;65157;50.082;18.178;2023-04-03T06:06:56;3.10;;;1.80;;
76336;SDS011;65157;50.082;18.178;2023-04-03T06:09:25;3.80;;;1.40;;
76336;SDS011;65157;50.082;18.178;2023-04-03T06:11:56;4.60;;;1.80;;
76336;SDS011;65157;50.082;18.178;2023-04-03T06:16:51;5.90;;;1.60;;
76336;SDS011;65157;50.082;18.178;2023-04-03T06:21:48;4.20;;;1.70;;
76336;SDS011;65157;50.082;18.178;2023-04-03T06:24:16;2.50;;;1.50;;
76336;SDS011;65157;50.082;18.178;2023-04-03T06:26:43;4.90;;;1.70;;
76336;SDS011;65157;50.082;18.178;2023-04-03T06:29:10;3.50;;;1.50;;
76336;SDS011;65157;50.082;18.178;2023-04-03T06:31:36;3.70;;;1.50;;
76336;SDS011;65157;50.082;18.178;2023-04-03T06:34:03;3.60;;;1.70;;
76336;SDS011;65157;50.082;18.178;2023-04-03T06:36:36;4.10;;;1.90;;
76336;SDS011;65157;50.082;18.178;2023-04-03T06:39:03;3.70;;;1.70;;
76336;SDS011;65157;50.082;18.178;2023-04-03T06:41:30;4.10;;;1.60;;
76336;SDS011;65157;50.082;18.178;2023-04-03T06:44:00;4.10;;;1.90;;
76336;SDS011;65157;50.082;18.178;2023-04-03T06:46:28;6.20;;;2.00;;
76336;SDS011;65157;50.082;18.178;2023-04-03T06:48:55;4.90;;;2.00;;
76336;SDS011;65157;50.082;18.178;2023-04-03T06:51:23;3.90;;;1.80;;
76336;SDS011;65157;50.082;18.178;2023-04-03T06:54:00;4.80;;;1.90;;
76336;SDS011;65157;50.082;18.178;2023-04-03T06:56:30;4.00;;;2.30;;
76336;SDS011;65157;50.082;18.178;2023-04-03T06:58:57;5.50;;;1.90;;
76336;SDS011;65157;50.082;18.178;2023-04-03T07:01:27;4.80;;;1.90;;
76336;SDS011;65157;50.082;18.178;2023-04-03T07:03:55;5.40;;;2.20;;
76336;SDS011;65157;50.082;18.178;2023-04-03T07:06:27;4.50;;;2.50;;
76336;SDS011;65157;50.082;18.178;2023-04-03T07:08:54;4.00;;;2.20;;
76336;SDS011;65157;50.082;18.178;2023-04-03T07:11:24;5.60;;;2.30;;
76336;SDS011;65157;50.082;18.178;2023-04-03T07:13:51;4.80;;;2.10;;
76336;SDS011;65157;50.082;18.178;2023-04-03T07:16:41;3.90;;;2.30;;
76336;SDS011;65157;50.082;18.178;2023-04-03T07:19:11;3.60;;;2.10;;
76336;SDS011;65157;50.082;18.178;2023-04-03T07:21:41;5.40;;;1.90;;
76336;SDS011;65157;50.082;18.178;2023-04-03T07:26:35;4.40;;;2.10;;
76336;SDS011;65157;50.082;18.178;2023-04-03T07:29:02;4.30;;;1.80;;
76336;SDS011;65157;50.082;18.178;2023-04-03T07:31:29;6.30;;;2.90;;
76336;SDS011;65157;50.082;18.178;2023-04-03T07:33:56;5.00;;;2.60;;
76336;SDS011;65157;50.082;18.178;2023-04-03T07:36:22;3.50;;;2.20;;
76336;SDS011;65157;50.082;18.178;2023-04-03T07:38:49;6.90;;;3.10;;
76336;SDS011;65157;50.082;18.178;2023-04-03T07:41:19;5.40;;;2.50;;
76336;SDS011;65157;50.082;18.178;2023-04-03T07:43:46;3.90;;;2.10;;
76336;SDS011;65157;50.082;18.178;2023-04-03T07:46:14;4.20;;;2.50;;
76336;SDS011;65157;50.082;18.178;2023-04-03T07:48:43;3.20;;;1.70;;
76336;SDS011;65157;50.082;18.178;2023-04-03T07:51:15;4.20;;;2.00;;
76336;SDS011;65157;50.082;18.178;2023-04-03T07:53:42;5.30;;;2.30;;
76336;SDS011;65157;50.082;18.178;2023-04-03T07:56:09;5.20;;;2.40;;
76336;SDS011;65157;50.082;18.178;2023-04-03T07:58:38;2.70;;;1.90;;
76336;SDS011;65157;50.082;18.178;2023-04-03T08:01:05;4.70;;;2.00;;
76336;SDS011;65157;50.082;18.178;2023-04-03T08:03:33;2.60;;;1.70;;
76336;SDS011;65157;50.082;18.178;2023-04-03T08:06:07;5.40;;;2.20;;
76336;SDS011;65157;50.082;18.178;2023-04-03T08:08:35;3.50;;;1.70;;
76336;SDS011;65157;50.082;18.178;2023-04-03T08:11:02;2.10;;;1.50;;
76336;SDS011;65157;50.082;18.178;2023-04-03T08:13:29;2.60;;;1.80;;
76336;SDS011;65157;50.082;18.178;2023-04-03T08:15:56;2.70;;;1.80;;
76336;SDS011;65157;50.082;18.178;2023-04-03T08:18:23;2.60;;;1.50;;
76336;SDS011;65157;50.082;18.178;2023-04-03T08:20:52;4.90;;;2.20;;
76336;SDS011;65157;50.082;18.178;2023-04-03T08:23:22;3.90;;;2.10;;
76336;SDS011;65157;50.082;18.178;2023-04-03T08:25:51;3.90;;;1.90;;
76336;SDS011;65157;50.082;18.178;2023-04-03T08:28:18;3.60;;;1.60;;
76336;SDS011;65157;50.082;18.178;2023-04-03T08:30:44;3.40;;;2.00;;
76336;SDS011;65157;50.082;18.178;2023-04-03T08:33:15;3.00;;;1.70;;
76336;SDS011;65157;50.082;18.178;2023-04-03T08:35:41;2.90;;;1.60;;
76336;SDS011;65157;50.082;18.178;2023-04-03T08:38:09;2.50;;;1.40;;
76336;SDS011;65157;50.082;18.178;2023-04-03T08:40:36;2.70;;;1.80;;
76336;SDS011;65157;50.082;18.178;2023-04-03T08:43:29;3.80;;;1.50;;
76336;SDS011;65157;50.082;18.178;2023-04-03T08:49:41;3.00;;;1.20;;
76336;SDS011;65157;50.082;18.178;2023-04-03T08:52:10;2.90;;;1.40;;
76336;SDS011;65157;50.082;18.178;2023-04-03T08:54:48;1.90;;;1.40;;
76336;SDS011;65157;50.082;18.178;2023-04-03T08:57:35;2.40;;;1.10;;
76336;SDS011;65157;50.082;18.178;2023-04-03T09:00:25;2.40;;;1.30;;
76336;SDS011;65157;50.082;18.178;2023-04-03T09:02:56;1.50;;;1.10;;
76336;SDS011;65157;50.082;18.178;2023-04-03T09:05:32;2.10;;;1.00;;
76336;SDS011;65157;50.082;18.178;2023-04-03T09:08:30;2.50;;;1.30;;
76336;SDS011;65157;50.082;18.178;2023-04-03T09:11:35;4.40;;;2.70;;
76336;SDS011;65157;50.082;18.178;2023-04-03T09:21:59;7.00;;;2.80;;
76336;SDS011;65157;50.082;18.178;2023-04-03T09:24:36;3.00;;;1.70;;
76336;SDS011;65157;50.082;18.178;2023-04-03T09:27:04;2.50;;;1.20;;
76336;SDS011;65157;50.082;18.178;2023-04-03T09:29:33;1.70;;;1.00;;
76336;SDS011;65157;50.082;18.178;2023-04-03T09:32:19;2.80;;;1.30;;
76336;SDS011;65157;50.082;18.178;2023-04-03T09:35:01;1.20;;;1.00;;
76336;SDS011;65157;50.082;18.178;2023-04-03T09:37:51;1.60;;;1.20;;
76336;SDS011;65157;50.082;18.178;2023-04-03T09:42:55;1.50;;;0.90;;
76336;SDS011;65157;50.082;18.178;2023-04-03T09:50:37;1.80;;;1.10;;
76336;SDS011;65157;50.082;18.178;2023-04-03T09:55:41;2.10;;;1.40;;
76336;SDS011;65157;50.082;18.178;2023-04-03T09:58:23;1.30;;;1.00;;
76336;SDS011;65157;50.082;18.178;2023-04-03T10:00:57;2.60;;;1.10;;
76336;SDS011;65157;50.082;18.178;2023-04-03T10:03:34;2.40;;;1.10;;
76336;SDS011;65157;50.082;18.178;2023-04-03T10:06:02;3.10;;;1.10;;
76336;SDS011;65157;50.082;18.178;2023-04-03T10:08:33;2.20;;;1.20;;
76336;SDS011;65157;50.082;18.178;2023-04-03T10:11:10;1.10;;;1.00;;
76336;SDS011;65157;50.082;18.178;2023-04-03T10:13:54;1.80;;;1.10;;
76336;SDS011;65157;50.082;18.178;2023-04-03T10:16:27;3.20;;;1.00;;
76336;SDS011;65157;50.082;18.178;2023-04-03T10:19:03;2.00;;;1.20;;
76336;SDS011;65157;50.082;18.178;2023-04-03T10:21:45;2.50;;;1.20;;
76336;SDS011;65157;50.082;18.178;2023-04-03T10:30:12;1.30;;;1.00;;
76336;SDS011;65157;50.082;18.178;2023-04-03T10:35:14;2.80;;;1.30;;
76336;SDS011;65157;50.082;18.178;2023-04-03T10:43:42;4.20;;;1.30;;
76336;SDS011;65157;50.082;18.178;2023-04-03T10:46:36;1.60;;;1.20;;
76336;SDS011;65157;50.082;18.178;2023-04-03T10:52:09;2.40;;;1.20;;
76336;SDS011;65157;50.082;18.178;2023-04-03T10:54:49;1.80;;;1.20;;
76336;SDS011;65157;50.082;18.178;2023-04-03T10:57:54;1.70;;;1.20;;
76336;SDS011;65157;50.082;18.178;2023-04-03T11:00:35;3.40;;;1.30;;
76336;SDS011;65157;50.082;18.178;2023-04-03T11:03:13;1.70;;;0.90;;
76336;SDS011;65157;50.082;18.178;2023-04-03T11:05:48;1.30;;;1.20;;
76336;SDS011;65157;50.082;18.178;2023-04-03T11:08:32;2.90;;;1.20;;
76336;SDS011;65157;50.082;18.178;2023-04-03T11:11:06;2.60;;;1.00;;
76336;SDS011;65157;50.082;18.178;2023-04-03T11:13:41;1.00;;;0.80;;
76336;SDS011;65157;50.082;18.178;2023-04-03T11:16:09;4.10;;;3.70;;
76336;SDS011;65157;50.082;18.178;2023-04-03T11:21:34;1.70;;;1.10;;
76336;SDS011;65157;50.082;18.178;2023-04-03T11:24:10;1.80;;;1.60;;
76336;SDS011;65157;50.082;18.178;2023-04-03T11:26:52;3.50;;;1.90;;
76336;SDS011;65157;50.082;18.178;2023-04-03T11:29:23;4.00;;;2.20;;
76336;SDS011;65157;50.082;18.178;2023-04-03T11:34:48;2.60;;;1.30;;
76336;SDS011;65157;50.082;18.178;2023-04-03T11:42:53;3.40;;;1.30;;
76336;SDS011;65157;50.082;18.178;2023-04-03T11:48:01;4.40;;;1.80;;
76336;SDS011;65157;50.082;18.178;2023-04-03T11:50:52;3.40;;;1.50;;
76336;SDS011;65157;50.082;18.178;2023-04-03T11:53:39;3.30;;;1.20;;
76336;SDS011;65157;50.082;18.178;2023-04-03T12:01:52;1.80;;;1.30;;
76336;SDS011;65157;50.082;18.178;2023-04-03T12:04:21;2.10;;;1.50;;
76336;SDS011;65157;50.082;18.178;2023-04-03T12:12:27;2.00;;;1.40;;
76336;SDS011;65157;50.082;18.178;2023-04-03T12:15:11;1.20;;;1.10;;
76336;SDS011;65157;50.082;18.178;2023-04-03T12:17:44;1.50;;;1.40;;
76336;SDS011;65157;50.082;18.178;2023-04-03T12:23:28;3.90;;;1.50;;
76336;SDS011;65157;50.082;18.178;2023-04-03T12:26:20;1.50;;;1.40;;
76336;SDS011;65157;50.082;18.178;2023-04-03T12:28:49;1.20;;;1.00;;
76336;SDS011;65157;50.082;18.178;2023-04-03T12:31:19;3.00;;;1.40;;
76336;SDS011;65157;50.082;18.178;2023-04-03T12:36:42;1.80;;;1.20;;
76336;SDS011;65157;50.082;18.178;2023-04-03T12:45:06;2.70;;;1.50;;
76336;SDS011;65157;50.082;18.178;2023-04-03T12:47:42;1.90;;;1.20;;
76336;SDS011;65157;50.082;18.178;2023-04-03T12:50:29;3.10;;;1.30;;
76336;SDS011;65157;50.082;18.178;2023-04-03T12:53:01;1.90;;;1.40;;
76336;SDS011;65157;50.082;18.178;2023-04-03T12:55:45;3.10;;;1.60;;
76336;SDS011;65157;50.082;18.178;2023-04-03T12:58:26;2.50;;;1.40;;
76336;SDS011;65157;50.082;18.178;2023-04-03T13:01:43;2.10;;;1.30;;
76336;SDS011;65157;50.082;18.178;2023-04-03T13:03:56;2.30;;;1.30;;
76336;SDS011;65157;50.082;18.178;2023-04-03T13:06:26;2.70;;;1.40;;
76336;SDS011;65157;50.082;18.178;2023-04-03T13:08:56;2.20;;;1.20;;
76336;SDS011;65157;50.082;18.178;2023-04-03T13:11:25;2.30;;;1.40;;
76336;SDS011;65157;50.082;18.178;2023-04-03T13:13:58;1.60;;;1.00;;
76336;SDS011;65157;50.082;18.178;2023-04-03T13:16:29;1.70;;;1.10;;
76336;SDS011;65157;50.082;18.178;2023-04-03T13:18:58;4.60;;;1.40;;
76336;SDS011;65157;50.082;18.178;2023-04-03T13:21:25;2.40;;;1.10;;
76336;SDS011;65157;50.082;18.178;2023-04-03T13:23:59;1.70;;;1.30;;
76336;SDS011;65157;50.082;18.178;2023-04-03T13:26:30;2.80;;;1.40;;
76336;SDS011;65157;50.082;18.178;2023-04-03T13:29:00;3.80;;;1.30;;
76336;SDS011;65157;50.082;18.178;2023-04-03T13:31:38;2.90;;;1.10;;
76336;SDS011;65157;50.082;18.178;2023-04-03T13:34:10;2.40;;;1.50;;
76336;SDS011;65157;50.082;18.178;2023-04-03T13:36:59;1.70;;;1.10;;
76336;SDS011;65157;50.082;18.178;2023-04-03T13:39:31;2.20;;;1.10;;
76336;SDS011;65157;50.082;18.178;2023-04-03T13:42:01;4.80;;;2.00;;
76336;SDS011;65157;50.082;18.178;2023-04-03T13:44:41;1.70;;;1.20;;
76336;SDS011;65157;50.082;18.178;2023-04-03T13:49:39;2.70;;;1.50;;
76336;SDS011;65157;50.082;18.178;2023-04-03T13:52:46;2.80;;;1.70;;
76336;SDS011;65157;50.082;18.178;2023-04-03T13:55:17;2.20;;;1.40;;
76336;SDS011;65157;50.082;18.178;2023-04-03T13:57:51;2.90;;;1.50;;
76336;SDS011;65157;50.082;18.178;2023-04-03T14:00:49;3.60;;;1.70;;
76336;SDS011;65157;50.082;18.178;2023-04-03T14:03:30;2.80;;;1.50;;
76336;SDS011;65157;50.082;18.178;2023-04-03T14:06:00;1.90;;;1.20;;
76336;SDS011;65157;50.082;18.178;2023-04-03T14:08:33;3.70;;;1.50;;
76336;SDS011;65157;50.082;18.178;2023-04-03T14:11:00;1.70;;;1.20;;
76336;SDS011;65157;50.082;18.178;2023-04-03T14:13:30;2.80;;;1.60;;
76336;SDS011;65157;50.082;18.178;2023-04-03T14:15:57;3.30;;;1.80;;
76336;SDS011;65157;50.082;18.178;2023-04-03T14:18:27;4.60;;;2.00;;
76336;SDS011;65157;50.082;18.178;2023-04-03T14:20:54;4.80;;;1.40;;
76336;SDS011;65157;50.082;18.178;2023-04-03T14:23:28;2.90;;;1.60;;
76336;SDS011;65157;50.082;18.178;2023-04-03T14:25:55;2.50;;;1.60;;
76336;SDS011;65157;50.082;18.178;2023-04-03T14:28:22;3.00;;;1.60;;
76336;SDS011;65157;50.082;18.178;2023-04-03T14:30:50;2.50;;;1.50;;
76336;SDS011;65157;50.082;18.178;2023-04-03T14:33:19;3.40;;;1.50;;
76336;SDS011;65157;50.082;18.178;2023-04-03T14:36:00;4.20;;;2.20;;
76336;SDS011;65157;50.082;18.178;2023-04-03T14:38:30;3.50;;;1.80;;
76336;SDS011;65157;50.082;18.178;2023-04-03T14:40:57;1.80;;;1.70;;
76336;SDS011;65157;50.082;18.178;2023-04-03T14:43:25;1.90;;;1.50;;
76336;SDS011;65157;50.082;18.178;2023-04-03T14:45:52;2.50;;;1.60;;
76336;SDS011;65157;50.082;18.178;2023-04-03T14:48:21;3.70;;;1.80;;
76336;SDS011;65157;50.082;18.178;2023-04-03T14:50:49;5.90;;;2.30;;
76336;SDS011;65157;50.082;18.178;2023-04-03T14:53:17;5.40;;;3.20;;
76336;SDS011;65157;50.082;18.178;2023-04-03T14:55:45;4.00;;;2.10;;
76336;SDS011;65157;50.082;18.178;2023-04-03T14:58:21;2.70;;;1.60;;
76336;SDS011;65157;50.082;18.178;2023-04-03T15:00:51;4.50;;;2.00;;
76336;SDS011;65157;50.082;18.178;2023-04-03T15:03:19;3.00;;;1.70;;
76336;SDS011;65157;50.082;18.178;2023-04-03T15:05:49;3.60;;;2.00;;
76336;SDS011;65157;50.082;18.178;2023-04-03T15:10:53;3.30;;;1.50;;
76336;SDS011;65157;50.082;18.178;2023-04-03T15:13:20;2.00;;;1.50;;
76336;SDS011;65157;50.082;18.178;2023-04-03T15:15:49;3.20;;;1.40;;
76336;SDS011;65157;50.082;18.178;2023-04-03T15:18:21;3.80;;;1.90;;
76336;SDS011;65157;50.082;18.178;2023-04-03T15:21:11;3.20;;;1.90;;
76336;SDS011;65157;50.082;18.178;2023-04-03T15:23:41;2.50;;;1.70;;
76336;SDS011;65157;50.082;18.178;2023-04-03T15:26:11;2.90;;;1.50;;
76336;SDS011;65157;50.082;18.178;2023-04-03T15:28:39;3.60;;;2.00;;
76336;SDS011;65157;50.082;18.178;2023-04-03T15:31:11;4.00;;;2.30;;
76336;SDS011;65157;50.082;18.178;2023-04-03T15:33:43;2.70;;;1.60;;
76336;SDS011;65157;50.082;18.178;2023-04-03T15:36:10;2.10;;;1.40;;
76336;SDS011;65157;50.082;18.178;2023-04-03T15:38:40;2.90;;;1.60;;
76336;SDS011;65157;50.082;18.178;2023-04-03T15:41:07;2.00;;;1.80;;
76336;SDS011;65157;50.082;18.178;2023-04-03T15:43:34;4.40;;;2.00;;
76336;SDS011;65157;50.082;18.178;2023-04-03T15:46:00;2.50;;;1.50;;
76336;SDS011;65157;50.082;18.178;2023-04-03T15:48:33;2.00;;;1.50;;
76336;SDS011;65157;50.082;18.178;2023-04-03T15:51:02;2.00;;;1.60;;
76336;SDS011;65157;50.082;18.178;2023-04-03T15:53:32;3.10;;;1.80;;
76336;SDS011;65157;50.082;18.178;2023-04-03T15:56:02;4.30;;;2.00;;
76336;SDS011;65157;50.082;18.178;2023-04-03T15:58:32;5.50;;;2.60;;
76336;SDS011;65157;50.082;18.178;2023-04-03T16:01:02;2.80;;;2.10;;
76336;SDS011;65157;50.082;18.178;2023-04-03T16:03:32;3.40;;;2.20;;
76336;SDS011;65157;50.082;18.178;2023-04-03T16:05:58;5.10;;;2.80;;
76336;SDS011;65157;50.082;18.178;2023-04-03T16:08:25;4.00;;;2.40;;
76336;SDS011;65157;50.082;18.178;2023-04-03T16:10:52;4.60;;;2.60;;
76336;SDS011;65157;50.082;18.178;2023-04-03T16:13:25;6.90;;;3.10;;
76336;SDS011;65157;50.082;18.178;2023-04-03T16:15:54;2.90;;;2.10;;
76336;SDS011;65157;50.082;18.178;2023-04-03T16:18:23;4.40;;;2.40;;
76336;SDS011;65157;50.082;18.178;2023-04-03T16:20:50;3.70;;;2.20;;
76336;SDS011;65157;50.082;18.178;2023-04-03T16:23:17;4.90;;;3.00;;
76336;SDS011;65157;50.082;18.178;2023-04-03T16:25:45;4.40;;;2.70;;
76336;SDS011;65157;50.082;18.178;2023-04-03T16:28:13;8.50;;;3.30;;
76336;SDS011;65157;50.082;18.178;2023-04-03T16:30:43;4.50;;;2.00;;